Time;durP1;ratioP1;P1;durP2;ratioP2;P2;SDS_P1;SDS_P2;PMS_P1;PMS_P2;Temp;Humidity;BMP_temperature;BMP_pressure;BME280_temperature;BME280_humidity;BME280_pressure;Samples;Min_cycle;Max_cycle;Signal;HPM_P1;HPM_P2
2022/02/21 00:01:06;;;;;;;1.95;1.40;;;8.20;1.00;;;;;;6210279;23;20241;-90
2022/02/21 00:03:33;;;;;;;2.05;1.15;;;8.20;1.00;;;;;;6211294;23;20708;-90
2022/02/21 00:06:01;;;;;;;1.80;1.10;;;8.20;1.00;;;;;;6210842;23;21073;-91
2022/02/21 00:08:28;;;;;;;2.22;1.50;;;8.20;1.00;;;;;;6220624;22;20269;-92
2022/02/21 00:10:58;;;;;;;1.98;1.20;;;8.20;1.00;;;;;;6218951;23;20191;-89
2022/02/21 00:13:29;;;;;;;4.95;3.30;;;8.20;1.00;;;;;;6218236;23;20194;-90
2022/02/21 00:15:56;;;;;;;2.28;1.30;;;8.30;1.00;;;;;;6219465;23;20189;-90
2022/02/21 00:18:23;;;;;;;2.00;1.30;;;8.30;1.00;;;;;;6218383;22;20202;-89
2022/02/21 00:20:50;;;;;;;2.88;1.30;;;8.30;1.00;;;;;;6219944;23;20992;-89
2022/02/21 00:23:18;;;;;;;2.28;1.30;;;8.30;1.00;;;;;;6214176;23;20197;-89
2022/02/21 00:25:45;;;;;;;2.53;1.13;;;8.30;1.00;;;;;;6208591;23;20307;-89
2022/02/21 00:28:12;;;;;;;3.00;1.55;;;8.30;1.00;;;;;;6208427;22;20206;-89
2022/02/21 00:30:38;;;;;;;2.35;1.08;;;8.30;1.00;;;;;;6208701;22;20245;-90
2022/02/21 00:33:05;;;;;;;1.80;1.33;;;8.30;1.00;;;;;;6210892;23;20192;-91
2022/02/21 00:35:32;;;;;;;2.90;0.90;;;8.30;1.00;;;;;;6210318;23;20198;-91
2022/02/21 00:37:59;;;;;;;2.13;0.90;;;8.30;1.00;;;;;;6208687;22;20208;-91
2022/02/21 00:40:30;;;;;;;1.92;1.20;;;8.30;1.00;;;;;;6210210;23;20193;-90
2022/02/21 00:43:05;;;;;;;3.67;0.80;;;8.40;1.00;;;;;;6215926;23;20490;-92
2022/02/21 00:45:35;;;;;;;2.88;1.20;;;8.40;1.00;;;;;;6215864;23;20202;-90
2022/02/21 00:48:02;;;;;;;2.60;1.40;;;8.40;1.00;;;;;;6215531;22;20667;-90
2022/02/21 00:50:34;;;;;;;3.25;1.10;;;8.40;1.00;;;;;;6240445;22;20266;-91
2022/02/21 00:53:04;;;;;;;1.60;0.60;;;8.40;1.00;;;;;;6244978;22;20378;-88
2022/02/21 00:55:36;;;;;;;3.15;0.85;;;8.40;1.00;;;;;;6243137;22;20184;-90
2022/02/21 00:58:04;;;;;;;1.63;0.70;;;8.40;1.00;;;;;;6239845;22;20251;-90
2022/02/21 01:00:32;;;;;;;2.20;0.85;;;8.50;1.00;;;;;;6226583;23;20194;-90
2022/02/21 01:02:59;;;;;;;2.55;1.17;;;8.50;1.00;;;;;;6209577;23;20213;-89
2022/02/21 01:05:26;;;;;;;2.20;1.00;;;8.50;1.00;;;;;;6207144;23;20687;-90
2022/02/21 01:07:53;;;;;;;1.95;0.90;;;8.60;1.00;;;;;;6205596;22;20988;-90
2022/02/21 01:10:20;;;;;;;2.05;0.75;;;8.60;1.00;;;;;;6206481;23;20242;-90
2022/02/21 01:12:49;;;;;;;2.97;1.38;;;8.70;1.00;;;;;;6207408;23;20267;-90
2022/02/21 01:15:16;;;;;;;2.20;1.00;;;8.70;1.00;;;;;;6205858;23;20199;-91
2022/02/21 01:17:43;;;;;;;3.70;1.15;;;8.80;1.00;;;;;;6207138;23;20210;-89
2022/02/21 01:20:12;;;;;;;1.77;0.90;;;8.80;1.00;;;;;;6209695;23;20377;-91
2022/02/21 01:22:39;;;;;;;2.58;0.90;;;8.80;1.00;;;;;;6205098;23;20196;-90
2022/02/21 01:25:08;;;;;;;2.50;1.17;;;8.80;1.00;;;;;;6215784;22;20251;-89
2022/02/21 01:27:36;;;;;;;2.63;0.80;;;8.90;1.00;;;;;;6222433;22;20449;-91
2022/02/21 01:30:06;;;;;;;3.70;1.00;;;8.90;1.00;;;;;;6224078;23;20365;-90
2022/02/21 01:32:36;;;;;;;2.17;1.33;;;8.90;1.00;;;;;;6225084;22;20191;-91
2022/02/21 01:35:05;;;;;;;2.90;1.20;;;9.00;1.00;;;;;;6219510;23;20206;-91
2022/02/21 01:37:32;;;;;;;2.73;1.30;;;9.10;1.00;;;;;;6245510;22;20487;-90
2022/02/21 01:39:59;;;;;;;1.95;0.88;;;9.20;1.00;;;;;;6244751;22;20392;-90
2022/02/21 01:42:27;;;;;;;2.05;1.00;;;9.30;1.00;;;;;;6243166;22;20245;-90
2022/02/21 01:44:54;;;;;;;3.23;1.00;;;9.30;1.00;;;;;;6236637;23;20371;-91
2022/02/21 01:47:24;;;;;;;3.38;1.33;;;9.40;1.00;;;;;;6222248;22;20420;-90
2022/02/21 01:49:52;;;;;;;1.65;0.70;;;9.50;1.00;;;;;;6210956;22;20181;-91
2022/02/21 01:52:21;;;;;;;1.93;0.70;;;9.50;1.00;;;;;;6213175;23;20196;-92
2022/02/21 01:54:50;;;;;;;1.70;0.97;;;9.60;1.00;;;;;;6210019;23;20408;-91
2022/02/21 01:57:20;;;;;;;2.37;1.10;;;9.70;1.00;;;;;;6240671;22;20388;-89
2022/02/21 01:59:49;;;;;;;3.60;0.80;;;9.70;1.00;;;;;;6244024;22;20369;-89
2022/02/21 02:02:22;;;;;;;1.80;0.98;;;9.80;1.00;;;;;;6240575;22;20393;-90
2022/02/21 02:04:50;;;;;;;1.80;0.83;;;9.80;1.00;;;;;;6238710;22;20197;-89
2022/02/21 02:07:17;;;;;;;1.33;0.57;;;9.90;1.00;;;;;;6240418;22;20544;-89
2022/02/21 02:09:44;;;;;;;2.73;1.07;;;10.00;1.00;;;;;;6239386;22;20438;-89
2022/02/21 02:12:14;;;;;;;2.57;0.70;;;10.00;1.00;;;;;;6263971;22;20391;-90
2022/02/21 02:14:43;;;;;;;1.70;0.90;;;10.10;1.00;;;;;;6239913;22;20416;-90
2022/02/21 02:17:22;;;;;;;2.53;0.93;;;10.10;1.00;;;;;;6261274;22;20361;-90
2022/02/21 02:20:13;;;;;;;1.90;0.70;;;10.10;1.00;;;;;;6213768;22;20408;-91
2022/02/21 02:23:09;;;;;;;1.93;0.60;;;10.10;1.00;;;;;;6209070;23;20401;-91
2022/02/21 02:26:08;;;;;;;2.10;0.90;;;10.20;1.00;;;;;;6231428;22;20381;-92
2022/02/21 02:28:57;;;;;;;2.13;1.10;;;10.30;1.00;;;;;;6209314;22;20366;-91
2022/02/21 02:31:27;;;;;;;2.60;0.70;;;10.30;1.00;;;;;;6231774;22;20413;-93
2022/02/21 02:33:54;;;;;;;1.70;0.70;;;10.30;1.00;;;;;;6206597;22;20432;-90
2022/02/21 02:36:28;;;;;;;3.77;0.60;;;10.20;1.00;;;;;;6208677;23;21225;-89
2022/02/21 02:38:59;;;;;;;1.80;0.90;;;10.00;1.00;;;;;;6208388;23;20491;-90
2022/02/21 02:41:25;;;;;;;1.80;0.80;;;9.90;1.00;;;;;;6203898;23;20952;-89
2022/02/21 02:43:55;;;;;;;1.63;0.70;;;9.70;1.00;;;;;;6207812;23;20395;-89
2022/02/21 02:46:22;;;;;;;2.33;1.00;;;9.60;1.00;;;;;;6206937;23;20468;-92
2022/02/21 02:48:49;;;;;;;1.73;0.77;;;9.50;1.00;;;;;;6208760;23;21070;-88
2022/02/21 02:51:19;;;;;;;3.40;0.90;;;9.30;1.00;;;;;;6206825;23;20189;-89
2022/02/21 02:53:55;;;;;;;2.70;0.80;;;9.00;1.00;;;;;;6205875;23;20506;-90
2022/02/21 02:56:23;;;;;;;1.63;0.50;;;8.80;1.00;;;;;;6210814;23;20185;-89
2022/02/21 02:59:07;;;;;;;2.05;0.60;;;8.60;1.00;;;;;;6208937;23;20197;-89
2022/02/21 03:01:34;;;;;;;1.65;0.55;;;8.40;1.00;;;;;;6231379;22;20193;-87
2022/02/21 03:04:01;;;;;;;1.80;0.40;;;8.10;1.00;;;;;;6218857;23;20188;-86
2022/02/21 03:06:37;;;;;;;1.85;0.50;;;7.90;1.00;;;;;;6228602;22;20217;-88
2022/02/21 03:09:15;;;;;;;1.85;0.40;;;7.80;1.00;;;;;;6209646;22;20205;-88
2022/02/21 03:11:43;;;;;;;2.30;0.40;;;7.70;1.00;;;;;;6211165;23;20279;-87
2022/02/21 03:14:11;;;;;;;2.60;0.50;;;7.50;1.00;;;;;;6214439;23;20188;-87
2022/02/21 03:16:38;;;;;;;1.70;0.50;;;7.40;1.00;;;;;;6223836;22;20190;-89
2022/02/21 03:19:05;;;;;;;1.38;0.43;;;7.40;1.00;;;;;;6212694;22;20273;-88
2022/02/21 03:21:32;;;;;;;1.50;0.60;;;7.30;1.00;;;;;;6208568;23;20196;-87
2022/02/21 03:24:02;;;;;;;1.75;0.40;;;7.30;1.00;;;;;;6210209;23;21339;-88
2022/02/21 03:26:40;;;;;;;;;;;;;;;;;;;;;
2022/02/21 03:29:08;;;;;;;1.20;0.40;;;7.20;1.00;;;;;;6222984;22;20204;-88
2022/02/21 03:31:35;;;;;;;1.58;0.60;;;7.20;1.00;;;;;;6216448;23;20199;-87
2022/02/21 03:34:02;;;;;;;2.00;0.50;;;7.30;1.00;;;;;;6239287;23;20209;-83
2022/02/21 03:36:29;;;;;;;1.40;0.50;;;7.20;1.00;;;;;;6267515;22;20197;-85
2022/02/21 03:38:56;;;;;;;1.38;0.40;;;7.20;1.00;;;;;;6241606;22;20182;-84
2022/02/21 03:41:23;;;;;;;1.60;0.60;;;7.20;1.00;;;;;;6239700;22;20190;-86
2022/02/21 03:43:49;;;;;;;3.63;0.80;;;7.20;1.00;;;;;;6221504;22;20195;-88
2022/02/21 03:46:28;;;;;;;1.88;0.40;;;7.10;1.00;;;;;;6205418;23;21100;-89
2022/02/21 03:48:55;;;;;;;2.05;0.60;;;7.10;1.00;;;;;;6206339;22;20202;-88
2022/02/21 03:51:25;;;;;;;1.20;0.40;;;7.10;1.00;;;;;;6209517;22;20198;-88
2022/02/21 03:53:53;;;;;;;1.40;0.50;;;7.20;1.00;;;;;;6206845;23;20218;-88
2022/02/21 03:56:23;;;;;;;2.38;0.75;;;7.10;1.00;;;;;;6206024;23;20265;-89
2022/02/21 03:58:52;;;;;;;1.20;0.40;;;7.10;1.00;;;;;;6208836;22;20727;-89
2022/02/21 04:01:22;;;;;;;1.45;0.55;;;7.10;1.00;;;;;;6206610;23;20217;-90
2022/02/21 04:03:51;;;;;;;1.65;0.40;;;7.20;1.00;;;;;;6235120;22;21047;-90
2022/02/21 04:06:19;;;;;;;1.40;0.40;;;7.20;1.00;;;;;;6217079;23;20210;-88
2022/02/21 04:08:54;;;;;;;1.70;0.60;;;7.20;1.00;;;;;;6246716;22;20242;-87
2022/02/21 04:11:21;;;;;;;1.20;0.45;;;7.30;1.00;;;;;;6243459;22;20186;-88
2022/02/21 04:13:48;;;;;;;1.20;0.50;;;7.30;1.00;;;;;;6239241;22;20225;-87
2022/02/21 04:16:17;;;;;;;2.47;1.25;;;7.40;1.00;;;;;;6215142;23;20195;-89
2022/02/21 04:18:55;;;;;;;2.20;0.50;;;7.40;1.00;;;;;;6229587;22;20262;-87
2022/02/21 04:21:29;;;;;;;1.73;0.50;;;7.40;1.00;;;;;;6234601;22;20183;-87
2022/02/21 04:24:23;;;;;;;1.50;0.55;;;7.40;1.00;;;;;;6232889;22;20194;-88
2022/02/21 04:27:00;;;;;;;1.80;0.60;;;7.40;1.00;;;;;;6208760;22;20389;-91
2022/02/21 04:29:30;;;;;;;3.45;0.70;;;7.40;1.00;;;;;;6214851;23;20233;-91
2022/02/21 04:32:07;;;;;;;1.27;0.52;;;7.40;1.00;;;;;;6217704;23;20318;-91
2022/02/21 04:35:02;;;;;;;2.15;1.08;;;7.30;1.00;;;;;;6216608;23;20209;-91
2022/02/21 04:37:42;;;;;;;2.25;0.55;;;7.30;1.00;;;;;;6222342;22;20225;-91
2022/02/21 04:40:39;;;;;;;2.47;0.82;;;7.30;1.00;;;;;;6235379;22;20211;-91
2022/02/21 04:43:33;;;;;;;1.80;0.60;;;7.20;1.00;;;;;;6213286;23;20193;-90
2022/02/21 04:46:03;;;;;;;2.10;0.73;;;7.20;1.00;;;;;;6220911;23;20675;-92
2022/02/21 04:48:35;;;;;;;2.65;0.57;;;7.30;1.00;;;;;;6220242;22;20209;-91
2022/02/21 04:51:07;;;;;;;1.30;0.50;;;7.40;1.00;;;;;;6246988;22;20198;-93
2022/02/21 04:53:39;;;;;;;4.40;1.98;;;7.40;1.00;;;;;;6222560;22;20198;-91
2022/02/21 04:56:11;;;;;;;1.40;0.50;;;7.40;1.00;;;;;;6217141;23;20248;-89
2022/02/21 04:58:39;;;;;;;2.63;0.60;;;7.40;1.00;;;;;;6212835;22;20288;-90
2022/02/21 05:01:09;;;;;;;1.60;0.57;;;7.30;1.00;;;;;;6210046;23;20211;-90
2022/02/21 05:04:00;;;;;;;2.60;0.63;;;7.20;1.00;;;;;;6237242;22;20190;-90
2022/02/21 05:06:42;;;;;;;2.85;0.70;;;7.10;1.00;;;;;;6217720;23;20194;-91
2022/02/21 05:09:09;;;;;;;1.92;0.73;;;7.10;1.00;;;;;;6215530;22;20667;-89
2022/02/21 05:11:37;;;;;;;1.77;0.60;;;7.10;1.00;;;;;;6212221;23;20248;-88
2022/02/21 05:14:06;;;;;;;1.60;0.75;;;7.20;1.00;;;;;;6215804;23;20287;-89
2022/02/21 05:16:33;;;;;;;2.38;0.80;;;7.10;1.00;;;;;;6214762;23;20196;-89
2022/02/21 05:19:02;;;;;;;3.15;1.05;;;7.20;1.00;;;;;;6214844;23;20297;-90
2022/02/21 05:59:41;;;;;;;3.88;0.98;;;6.50;1.00;;;;;;6263022;22;20216;-84
2022/02/21 06:02:16;;;;;;;4.82;1.15;;;6.50;1.00;;;;;;6288313;22;20188;-88
2022/02/21 06:04:43;;;;;;;3.25;1.00;;;6.40;1.00;;;;;;6236917;22;20184;-89
2022/02/21 06:07:14;;;;;;;3.15;1.17;;;6.40;1.00;;;;;;6255987;22;20811;-85
2022/02/21 06:09:57;;;;;;;4.90;1.25;;;6.40;1.00;;;;;;6283670;22;20260;-89
2022/02/21 06:12:49;;;;;;;4.47;1.77;;;6.40;1.00;;;;;;6276065;22;20199;-88
2022/02/21 06:15:30;;;;;;;4.60;1.35;;;6.40;1.00;;;;;;6298117;22;20180;-91
2022/02/21 06:17:58;;;;;;;4.05;1.40;;;6.50;1.00;;;;;;6279943;22;20963;-83
2022/02/21 06:20:25;;;;;;;2.33;1.30;;;6.50;1.00;;;;;;6277596;22;20185;-89
2022/02/21 06:33:20;;;;;;;5.05;1.80;;;5.50;1.00;;;;;;6262613;22;20200;-85
2022/02/21 06:35:47;;;;;;;4.32;1.30;;;5.40;1.00;;;;;;6282785;22;20215;-86
2022/02/21 06:38:16;;;;;;;7.05;2.28;;;5.30;1.00;;;;;;6253630;22;20208;-86
2022/02/21 06:40:48;;;;;;;5.60;1.90;;;5.30;1.00;;;;;;6285039;22;20223;-88
2022/02/21 06:43:16;;;;;;;2.97;1.42;;;5.20;1.00;;;;;;6255299;22;20192;-88
2022/02/21 06:57:15;;;;;;;3.58;1.75;;;5.00;1.00;;;;;;6113799;22;20261;-91
2022/02/21 07:06:36;;;;;;;3.45;1.17;;;5.20;1.00;;;;;;6131143;22;20188;-84
2022/02/21 07:09:06;;;;;;;4.65;1.20;;;5.40;1.00;;;;;;6249261;22;20200;-86
2022/02/21 07:11:44;;;;;;;4.15;1.60;;;5.50;1.00;;;;;;6275499;22;20238;-86
2022/02/21 07:14:13;;;;;;;4.68;1.60;;;5.50;1.00;;;;;;6291091;22;20160;-86
2022/02/21 07:16:52;;;;;;;5.07;1.80;;;5.60;1.00;;;;;;6305433;22;20176;-84
2022/02/21 07:19:19;;;;;;;8.38;1.70;;;5.60;1.00;;;;;;6302495;22;20191;-84
2022/02/21 07:21:46;;;;;;;6.30;2.05;;;5.70;1.00;;;;;;6283746;22;20188;-84
2022/02/21 07:24:16;;;;;;;7.80;1.92;;;5.70;1.00;;;;;;6274801;22;20215;-86
2022/02/21 07:26:43;;;;;;;6.10;1.80;;;5.80;1.00;;;;;;6276602;22;20188;-85
2022/02/21 07:29:13;;;;;;;8.13;2.08;;;5.70;1.00;;;;;;6280922;22;20196;-85
2022/02/21 07:31:40;;;;;;;6.95;2.50;;;5.60;1.00;;;;;;6253081;22;20188;-85
2022/02/21 07:34:30;;;;;;;4.55;2.25;;;5.50;1.00;;;;;;6280571;22;20926;-86
2022/02/21 07:36:57;;;;;;;6.30;2.40;;;5.40;1.00;;;;;;6280507;22;20946;-87
2022/02/21 07:39:25;;;;;;;5.45;2.53;;;5.40;1.00;;;;;;6282322;22;20188;-85
2022/02/21 07:41:52;;;;;;;4.25;2.03;;;5.30;1.00;;;;;;6252782;22;20227;-88
2022/02/21 07:44:20;;;;;;;6.90;2.42;;;5.30;1.00;;;;;;6253601;22;21313;-86
2022/02/21 07:46:47;;;;;;;4.75;1.50;;;5.20;1.00;;;;;;6283200;22;20194;-87
2022/02/21 07:49:32;;;;;;;12.32;6.57;;;5.30;1.00;;;;;;6273799;22;20192;-88
2022/02/21 07:51:58;;;;;;;8.65;2.90;;;5.50;1.00;;;;;;6281780;22;20264;-89
2022/02/21 07:54:25;;;;;;;6.70;3.20;;;5.60;1.00;;;;;;6286810;22;20189;-85
2022/02/21 07:57:00;;;;;;;6.25;2.15;;;5.60;1.00;;;;;;6255592;22;20200;-89
2022/02/21 07:59:28;;;;;;;7.32;2.63;;;5.70;1.00;;;;;;6259496;22;20199;-85
2022/02/21 08:01:54;;;;;;;10.07;2.63;;;6.00;1.00;;;;;;6272519;22;20188;-79
2022/02/21 08:04:21;;;;;;;7.60;2.55;;;6.20;1.00;;;;;;6268626;22;20219;-83
2022/02/21 08:06:49;;;;;;;10.63;3.85;;;6.30;1.00;;;;;;6268735;22;20921;-82
2022/02/21 08:09:16;;;;;;;9.98;3.05;;;6.40;1.00;;;;;;6271800;22;20737;-82
2022/02/21 08:12:07;;;;;;;8.88;3.15;;;6.40;1.00;;;;;;6272495;22;20192;-89
2022/02/21 08:14:37;;;;;;;6.43;2.30;;;6.40;1.00;;;;;;6252896;22;20196;-85
2022/02/21 08:17:04;;;;;;;8.50;2.10;;;6.40;1.00;;;;;;6272173;22;20200;-84
2022/02/21 08:19:34;;;;;;;3.65;2.20;;;6.30;1.00;;;;;;6273315;22;20207;-84
2022/02/21 08:22:02;;;;;;;5.70;2.35;;;6.20;1.00;;;;;;6270816;22;21669;-85
2022/02/21 08:24:29;;;;;;;8.38;2.63;;;6.20;1.00;;;;;;6277065;22;20202;-85
2022/02/21 08:26:58;;;;;;;4.75;2.13;;;6.40;1.00;;;;;;6276394;22;20192;-85
2022/02/21 08:29:25;;;;;;;4.30;2.10;;;6.40;1.00;;;;;;6268612;22;20214;-87
2022/02/21 08:31:54;;;;;;;4.53;2.40;;;6.50;1.00;;;;;;6247808;22;20708;-85
2022/02/21 08:34:22;;;;;;;7.43;2.50;;;6.70;1.00;;;;;;6277680;22;20197;-83
2022/02/21 08:36:49;;;;;;;5.93;1.90;;;6.70;1.00;;;;;;6277515;22;20188;-84
2022/02/21 08:39:17;;;;;;;7.45;2.53;;;6.60;1.00;;;;;;6281918;22;20394;-86
2022/02/21 08:41:44;;;;;;;6.72;2.15;;;6.50;1.00;;;;;;6294028;22;20556;-85
2022/02/21 08:44:11;;;;;;;6.90;1.95;;;6.40;1.00;;;;;;6289640;22;20199;-85
2022/02/21 08:46:37;;;;;;;5.68;2.10;;;6.30;1.00;;;;;;6247401;22;20681;-85
2022/02/21 08:49:05;;;;;;;5.75;2.53;;;6.30;1.00;;;;;;6271929;22;20204;-85
2022/02/21 08:51:32;;;;;;;8.98;1.88;;;6.30;1.00;;;;;;6246036;22;20223;-86
2022/02/21 08:53:59;;;;;;;4.20;1.63;;;6.50;1.00;;;;;;6274866;22;20203;-84
2022/02/21 08:56:27;;;;;;;6.00;2.40;;;6.40;1.00;;;;;;6276986;22;20184;-86
2022/02/21 08:59:31;;;;;;;7.10;2.00;;;6.50;1.00;;;;;;6278216;22;21010;-88
2022/02/21 09:08:08;;;;;;;6.93;2.25;;;8.10;1.00;;;;;;6252813;22;20184;-85
2022/02/21 09:11:28;;;;;;;6.32;2.30;;;8.60;1.00;;;;;;6087459;23;20290;-86
2022/02/21 09:21:03;;;;;;;9.82;3.45;;;8.50;1.00;;;;;;6277165;22;20557;-89
2022/02/21 09:24:00;;;;;;;5.32;2.28;;;8.00;1.00;;;;;;6293253;22;20191;-86
2022/02/21 09:31:59;;;;;;;6.07;1.90;;;7.40;1.00;;;;;;6270024;22;21357;-86
2022/02/21 09:34:34;;;;;;;11.85;2.60;;;7.20;1.00;;;;;;6243323;22;20192;-84
2022/02/21 09:37:00;;;;;;;6.97;2.28;;;7.10;1.00;;;;;;6259423;22;20247;-81
2022/02/21 09:39:29;;;;;;;5.47;2.10;;;7.10;1.00;;;;;;6264398;22;20754;-83
2022/02/21 09:42:08;;;;;;;6.20;2.15;;;7.00;1.00;;;;;;6265327;22;20198;-85
2022/02/21 09:44:41;;;;;;;6.63;2.78;;;6.90;1.00;;;;;;6256739;22;20192;-85
2022/02/21 09:47:17;;;;;;;4.60;1.60;;;6.90;1.00;;;;;;6282171;22;21342;-85
2022/02/21 09:49:49;;;;;;;5.93;1.85;;;7.00;1.00;;;;;;6277452;22;20211;-84
2022/02/21 09:52:41;;;;;;;3.50;1.98;;;7.00;1.00;;;;;;6280679;22;20176;-84
2022/02/21 09:55:10;;;;;;;7.93;2.72;;;7.00;1.00;;;;;;6275901;22;20180;-84
2022/02/21 09:57:37;;;;;;;6.60;2.25;;;7.60;1.00;;;;;;6276572;22;20201;-84
2022/02/21 10:00:15;;;;;;;11.73;2.63;;;7.90;1.00;;;;;;6249202;22;20192;-85
2022/02/21 10:02:46;;;;;;;15.02;6.57;;;7.90;1.00;;;;;;6275694;22;20222;-85
2022/02/21 10:05:15;;;;;;;6.55;2.15;;;8.00;1.00;;;;;;6280144;22;20729;-83
2022/02/21 10:07:44;;;;;;;5.20;2.10;;;8.30;1.00;;;;;;6257363;22;20200;-81
2022/02/21 10:10:14;;;;;;;8.50;2.63;;;8.30;1.00;;;;;;6285404;22;20211;-82
2022/02/21 10:12:48;;;;;;;5.25;1.95;;;7.80;1.00;;;;;;6282159;22;20181;-81
2022/02/21 10:15:17;;;;;;;10.00;1.92;;;7.40;1.00;;;;;;6282991;22;20188;-83
2022/02/21 10:17:51;;;;;;;6.07;2.90;;;7.30;1.00;;;;;;6248984;22;20737;-82
2022/02/21 10:20:19;;;;;;;3.60;2.00;;;7.30;1.00;;;;;;6276891;22;20196;-83
2022/02/21 10:23:03;;;;;;;6.45;2.30;;;7.50;1.00;;;;;;6275757;22;20246;-84
2022/02/21 10:25:31;;;;;;;9.48;2.22;;;7.50;1.00;;;;;;6247477;22;20194;-82
2022/02/21 10:28:06;;;;;;;5.00;2.10;;;7.30;1.00;;;;;;6284348;22;20225;-87
2022/02/21 10:30:34;;;;;;;6.63;1.90;;;7.30;1.00;;;;;;6248455;22;20394;-84
2022/02/21 10:33:12;;;;;;;6.05;2.20;;;7.40;1.00;;;;;;6275235;22;20204;-80
2022/02/21 10:35:47;;;;;;;4.57;2.92;;;7.30;1.00;;;;;;6249753;22;20238;-83
2022/02/21 10:38:15;;;;;;;5.43;2.03;;;7.30;1.00;;;;;;6277583;22;20257;-83
2022/02/21 10:40:48;;;;;;;5.93;2.40;;;7.10;1.00;;;;;;6248723;22;20191;-82
2022/02/21 10:43:22;;;;;;;10.30;7.60;;;7.00;1.00;;;;;;6246859;22;20276;-84
2022/02/21 10:45:50;;;;;;;5.05;2.05;;;7.00;1.00;;;;;;6248366;22;20420;-84
2022/02/21 10:48:23;;;;;;;4.57;2.30;;;7.00;1.00;;;;;;6252960;22;20208;-81
2022/02/21 10:50:57;;;;;;;6.43;2.05;;;7.10;1.00;;;;;;6246304;22;20192;-82
2022/02/21 10:53:26;;;;;;;5.15;1.60;;;7.10;1.00;;;;;;6252895;22;20308;-82
2022/02/21 10:55:59;;;;;;;5.22;2.13;;;7.10;1.00;;;;;;6250930;22;20907;-83
2022/02/21 10:58:31;;;;;;;8.18;2.30;;;7.10;1.00;;;;;;6287032;22;20792;-82
2022/02/21 11:01:00;;;;;;;5.93;2.35;;;7.10;1.00;;;;;;6255543;22;20207;-83
2022/02/21 11:03:31;;;;;;;5.10;2.10;;;7.00;1.00;;;;;;6276508;22;20196;-80
2022/02/21 11:06:04;;;;;;;4.60;2.53;;;7.20;1.00;;;;;;6246581;22;20508;-83
2022/02/21 11:08:53;;;;;;;;;;;;;;;;;;;;;
2022/02/21 11:12:35;;;;;;;;;;;;;;;;;;;;;
2022/02/21 11:15:53;;;;;;;5.70;1.85;;;7.50;1.00;;;;;;6246918;22;20201;-85
2022/02/21 11:19:27;;;;;;;8.85;2.10;;;7.60;1.00;;;;;;6260190;22;20227;-84
2022/02/21 11:22:18;;;;;;;9.85;2.97;;;7.50;1.00;;;;;;6263862;22;20196;-82
2022/02/21 11:25:25;;;;;;;8.10;2.35;;;7.20;1.00;;;;;;6269844;22;20160;-82
2022/02/21 11:28:23;;;;;;;5.70;1.83;;;7.10;1.00;;;;;;6272558;22;20197;-83
2022/02/21 11:31:19;;;;;;;7.20;2.00;;;7.00;1.00;;;;;;6273640;22;20202;-83
2022/02/21 11:34:09;;;;;;;5.55;2.30;;;7.10;1.00;;;;;;6279190;22;20203;-82
2022/02/21 11:51:26;;;;;;;6.05;2.40;;;7.60;1.00;;;;;;5203525;27;20548;-83
2022/02/21 11:54:20;;;;;;;6.95;2.17;;;7.50;1.00;;;;;;5199439;27;20312;-81
2022/02/21 12:03:32;;;;;;;7.75;2.10;;;7.30;1.00;;;;;;5156812;27;20309;-82
2022/02/21 12:17:11;;;;;;;5.90;2.15;;;7.40;1.00;;;;;;5020010;28;21414;-81
2022/02/21 12:31:18;;;;;;;5.57;2.33;;;8.20;1.00;;;;;;5013740;28;21584;-80
2022/02/21 12:38:22;;;;;;;6.80;2.60;;;8.00;1.00;;;;;;5147793;27;20222;-81
2022/02/21 12:41:02;;;;;;;6.47;1.83;;;7.70;1.00;;;;;;5172332;27;20301;-82
2022/02/21 12:43:49;;;;;;;9.48;2.60;;;7.70;1.00;;;;;;5148141;27;20251;-83
2022/02/21 12:46:18;;;;;;;5.97;2.05;;;7.70;1.00;;;;;;5162241;27;20225;-82
2022/02/21 12:48:47;;;;;;;5.78;2.08;;;7.70;1.00;;;;;;5170696;27;20717;-83
2022/02/21 12:51:24;;;;;;;3.53;1.80;;;7.70;1.00;;;;;;5170229;27;20260;-81
2022/02/21 12:53:54;;;;;;;7.20;2.33;;;7.60;1.00;;;;;;5167088;27;20350;-81
2022/02/21 12:56:20;;;;;;;6.80;2.20;;;7.40;1.00;;;;;;5145989;27;20217;-80
2022/02/21 12:58:50;;;;;;;4.07;2.22;;;7.40;1.00;;;;;;5170609;27;20292;-81
2022/02/21 13:04:10;;;;;;;7.55;2.30;;;7.30;1.00;;;;;;5157813;27;20225;-83
2022/02/21 13:06:47;;;;;;;5.80;2.08;;;7.20;1.00;;;;;;5152896;27;20226;-83
2022/02/21 13:10:00;;;;;;;5.50;2.50;;;7.20;1.00;;;;;;5154676;27;20225;-82
2022/02/21 13:29:39;;;;;;;5.18;2.13;;;7.30;1.00;;;;;;4983700;28;20248;-86
2022/02/21 13:32:23;;;;;;;4.32;1.80;;;7.30;1.00;;;;;;4990081;28;20259;-87
2022/02/21 13:35:01;;;;;;;5.03;2.00;;;7.30;1.00;;;;;;5046466;28;20232;-87
2022/02/21 13:37:37;;;;;;;4.85;1.73;;;7.40;1.00;;;;;;5033382;28;20325;-85
2022/02/21 13:40:21;;;;;;;4.45;2.08;;;7.30;1.00;;;;;;5062539;28;20220;-85
2022/02/21 13:42:57;;;;;;;3.80;1.80;;;7.20;1.00;;;;;;5066359;28;20237;-88
2022/02/21 13:45:28;;;;;;;8.88;2.38;;;7.10;1.00;;;;;;5051602;28;20237;-86
2022/02/21 13:48:11;;;;;;;5.93;2.50;;;6.90;1.00;;;;;;5057931;28;20234;-86
2022/02/21 13:50:46;;;;;;;5.22;2.10;;;6.80;1.00;;;;;;5043581;28;20303;-85
2022/02/21 13:53:16;;;;;;;5.45;3.10;;;6.60;1.00;;;;;;5042551;28;20220;-83
2022/02/21 13:55:53;;;;;;;6.07;2.15;;;6.50;1.00;;;;;;5044813;28;20287;-83
2022/02/21 13:58:27;;;;;;;3.38;1.65;;;6.40;1.00;;;;;;5044154;28;20248;-84
2022/02/21 14:00:54;;;;;;;4.47;1.75;;;6.40;1.00;;;;;;5053558;28;20224;-86
2022/02/21 14:03:22;;;;;;;4.68;2.85;;;6.50;1.00;;;;;;5056273;28;20248;-83
2022/02/21 14:05:57;;;;;;;9.73;4.70;;;6.40;1.00;;;;;;5045043;28;20345;-84
2022/02/21 14:08:37;;;;;;;3.67;2.20;;;6.40;1.00;;;;;;5042013;28;20255;-84
2022/02/21 14:11:06;;;;;;;3.75;2.10;;;6.40;1.00;;;;;;5052008;28;20233;-85
2022/02/21 14:13:33;;;;;;;4.80;1.80;;;6.40;1.00;;;;;;5046256;28;20302;-85
2022/02/21 14:15:59;;;;;;;5.78;1.98;;;6.50;1.00;;;;;;5040972;28;20226;-85
2022/02/21 14:18:26;;;;;;;6.97;2.58;;;6.60;1.00;;;;;;5038490;28;20290;-85
2022/02/21 14:20:53;;;;;;;4.88;2.00;;;6.60;1.00;;;;;;5039673;28;20240;-85
2022/02/21 14:23:20;;;;;;;5.07;2.10;;;6.60;1.00;;;;;;5039347;28;20305;-86
2022/02/21 14:25:47;;;;;;;7.47;2.28;;;6.50;1.00;;;;;;5035256;28;21187;-83
2022/02/21 14:28:15;;;;;;;4.22;2.10;;;6.50;1.00;;;;;;5036112;28;20225;-83
2022/02/21 14:30:42;;;;;;;5.80;2.00;;;6.40;1.00;;;;;;5035717;28;20320;-85
2022/02/21 14:33:09;;;;;;;4.00;2.05;;;6.20;1.00;;;;;;5035220;28;20971;-85
2022/02/21 14:35:37;;;;;;;3.20;1.77;;;6.20;1.00;;;;;;5037629;28;20236;-85
2022/02/21 14:38:05;;;;;;;7.43;2.58;;;6.20;1.00;;;;;;5037990;28;20234;-84
2022/02/21 14:40:32;;;;;;;3.95;2.67;;;6.20;1.00;;;;;;5042429;28;21141;-83
2022/02/21 14:42:59;;;;;;;6.40;2.50;;;6.10;1.00;;;;;;5038037;28;20233;-83
2022/02/21 14:45:27;;;;;;;6.95;2.65;;;6.10;1.00;;;;;;5020302;28;20336;-85
2022/02/21 14:47:54;;;;;;;4.68;2.25;;;6.00;1.00;;;;;;5039030;28;20719;-84
2022/02/21 14:50:21;;;;;;;6.82;2.50;;;5.90;1.00;;;;;;5041494;28;20695;-83
2022/02/21 14:52:48;;;;;;;6.43;2.28;;;5.80;1.00;;;;;;5044202;28;20225;-80
2022/02/21 14:55:15;;;;;;;5.05;2.30;;;5.80;1.00;;;;;;5041955;28;20221;-81
2022/02/21 14:57:42;;;;;;;6.90;2.22;;;5.80;1.00;;;;;;5049601;28;20282;-81
2022/02/21 15:00:12;;;;;;;5.00;2.38;;;5.80;1.00;;;;;;5051067;28;20241;-81
2022/02/21 15:02:41;;;;;;;5.28;1.90;;;5.80;1.00;;;;;;5047765;28;20264;-81
2022/02/21 15:05:10;;;;;;;5.78;2.00;;;5.80;1.00;;;;;;5052304;28;20778;-81
2022/02/21 15:07:37;;;;;;;3.80;1.50;;;5.80;1.00;;;;;;5064384;28;20241;-84
2022/02/21 15:10:06;;;;;;;8.93;2.40;;;5.80;1.00;;;;;;5058168;28;20244;-86
2022/02/21 15:12:33;;;;;;;6.60;2.25;;;5.90;1.00;;;;;;5054763;28;20268;-87
2022/02/21 15:15:00;;;;;;;5.78;3.83;;;5.90;1.00;;;;;;5048813;28;21042;-85
2022/02/21 15:17:41;;;;;;;5.93;2.20;;;6.00;1.00;;;;;;5052289;28;20225;-85
2022/02/21 15:20:10;;;;;;;6.65;2.53;;;6.10;1.00;;;;;;5049243;28;20229;-83
2022/02/21 15:22:47;;;;;;;5.72;1.50;;;6.10;1.00;;;;;;5053437;28;20217;-85
2022/02/21 15:25:19;;;;;;;4.65;2.35;;;6.20;1.00;;;;;;5055301;28;20232;-84
2022/02/21 15:27:52;;;;;;;4.50;1.80;;;6.30;1.00;;;;;;5053956;28;20241;-86
2022/02/21 15:30:24;;;;;;;4.53;1.83;;;6.30;1.00;;;;;;5028553;28;20240;-86
2022/02/21 15:33:02;;;;;;;5.72;1.67;;;6.30;1.00;;;;;;5032462;28;20292;-86
2022/02/21 15:35:42;;;;;;;4.32;2.35;;;6.30;1.00;;;;;;5043929;28;20228;-85
2022/02/21 15:38:28;;;;;;;59.80;48.92;;;6.30;1.00;;;;;;5048308;28;20597;-85
2022/02/21 15:41:41;;;;;;;7.38;2.10;;;6.20;1.00;;;;;;5029157;28;20260;-86
2022/02/21 15:44:16;;;;;;;4.50;2.10;;;6.00;1.00;;;;;;4975106;28;20286;-83
2022/02/21 15:46:45;;;;;;;5.45;2.38;;;5.90;1.00;;;;;;4999946;28;20281;-86
2022/02/21 15:49:17;;;;;;;6.95;2.28;;;5.70;1.00;;;;;;5044154;28;20268;-84
2022/02/21 15:51:46;;;;;;;5.03;2.03;;;5.60;1.00;;;;;;5032393;28;20222;-84
2022/02/21 15:54:13;;;;;;;3.97;2.33;;;5.50;1.00;;;;;;5046147;28;20343;-84
2022/02/21 15:56:52;;;;;;;7.53;2.08;;;5.30;1.00;;;;;;5050997;28;20305;-85
2022/02/21 15:59:20;;;;;;;7.28;2.10;;;5.10;1.00;;;;;;5045378;28;20236;-84
2022/02/21 16:01:52;;;;;;;9.02;2.13;;;5.00;1.00;;;;;;5049573;28;20225;-86
2022/02/21 16:04:25;;;;;;;6.32;2.80;;;4.90;1.00;;;;;;5049821;28;20345;-85
2022/02/21 16:06:56;;;;;;;11.55;2.67;;;4.80;1.00;;;;;;5054191;28;20225;-84
2022/02/21 16:09:24;;;;;;;5.93;2.08;;;4.80;1.00;;;;;;5033223;28;20252;-85
2022/02/21 16:15:17;;;;;;;8.40;2.40;;;4.70;1.00;;;;;;5047368;28;20216;-84
2022/02/21 16:17:58;;;;;;;7.45;2.05;;;4.50;1.00;;;;;;5073966;28;20233;-84